createdAt,value
2022-12-09T00:01:54.290Z,61.34
2022-12-09T00:04:22.904Z,61.94
2022-12-09T00:06:51.087Z,61.42
2022-12-09T00:09:19.507Z,61.67
2022-12-09T00:11:48.130Z,61.18
2022-12-09T00:14:17.761Z,61.28
2022-12-09T00:16:46.186Z,61.55
2022-12-09T00:19:14.558Z,62.59
2022-12-09T00:21:43.377Z,62.64
2022-12-09T00:24:14.822Z,61.83
2022-12-09T00:26:43.900Z,61.87
2022-12-09T00:29:13.243Z,62.26
2022-12-09T00:31:43.246Z,62.15
2022-12-09T00:34:13.778Z,61.93
2022-12-09T00:36:41.919Z,61.99
2022-12-09T00:39:13.266Z,62.29
2022-12-09T00:41:41.628Z,61.52
2022-12-09T00:44:10.926Z,62.24
2022-12-09T00:46:39.107Z,61.76
2022-12-09T00:49:09.186Z,62.87
2022-12-09T00:51:37.782Z,62.19
2022-12-09T00:54:06.293Z,61.92
2022-12-09T00:56:34.631Z,61.96
2022-12-09T00:59:03.057Z,61.98
2022-12-09T01:01:31.612Z,63.58
2022-12-09T01:03:59.733Z,63.65
2022-12-09T01:06:30.018Z,62.62
2022-12-09T01:08:58.850Z,62.55
2022-12-09T01:11:28.950Z,63.05
2022-12-09T01:14:01.203Z,62.93
2022-12-09T01:16:32.517Z,62.77
2022-12-09T01:19:03.668Z,63.54
2022-12-09T01:21:35.481Z,63.89
2022-12-09T01:24:10.241Z,63.21
2022-12-09T01:26:39.360Z,62.79
2022-12-09T01:29:07.518Z,63.51
2022-12-09T01:31:36.640Z,63.78
2022-12-09T01:34:05.756Z,63.29
2022-12-09T01:36:35.783Z,64.22
2022-12-09T01:39:05.716Z,64.02
2022-12-09T01:41:35.737Z,63.46
2022-12-09T01:44:16.227Z,64.09
2022-12-09T01:46:45.432Z,64.55
2022-12-09T01:49:18.318Z,63.65
2022-12-09T01:51:55.796Z,64.28
2022-12-09T01:54:24.559Z,64.43
2022-12-09T01:56:53.524Z,63.55
2022-12-09T01:59:22.913Z,63.69
2022-12-09T02:01:54.231Z,63.97
2022-12-09T02:04:22.392Z,63.32
2022-12-09T02:06:52.788Z,62.66
2022-12-09T02:09:22.286Z,63.46
2022-12-09T02:12:05.445Z,63.57
2022-12-09T02:14:40.486Z,63.65
2022-12-09T02:17:26.075Z,63.85
2022-12-09T02:20:05.785Z,64.61
2022-12-09T02:22:40.455Z,65.52
2022-12-09T02:25:19.296Z,64.56
2022-12-09T02:27:51.940Z,63.81
2022-12-09T02:30:23.232Z,64.18
2022-12-09T02:33:17.370Z,63.89
2022-12-09T02:35:54.970Z,62.96
2022-12-09T02:38:28.238Z,62.81
2022-12-09T02:41:01.537Z,62.26
2022-12-09T02:43:32.879Z,61.63
2022-12-09T02:46:02.980Z,61.67
2022-12-09T02:48:36.684Z,61.68
2022-12-09T02:51:11.309Z,61.44
2022-12-09T02:53:42.983Z,61.30
2022-12-09T02:56:13.846Z,61.67
2022-12-09T02:58:42.257Z,62.71
2022-12-09T03:01:22.011Z,63.00
2022-12-09T03:03:53.433Z,62.79
2022-12-09T03:06:29.648Z,62.97
2022-12-09T03:09:02.667Z,61.71
2022-12-09T03:11:33.653Z,61.90
2022-12-09T03:14:06.960Z,62.40
2022-12-09T03:16:38.490Z,63.97
2022-12-09T03:19:10.717Z,63.63
2022-12-09T03:21:43.495Z,64.44
2022-12-09T03:24:15.341Z,64.12
2022-12-09T03:26:44.400Z,63.69
2022-12-09T03:29:17.008Z,62.89
2022-12-09T03:31:47.216Z,61.85
2022-12-09T03:34:18.331Z,62.18
2022-12-09T03:36:51.376Z,62.25
2022-12-09T03:39:26.576Z,63.64
2022-12-09T03:41:58.332Z,64.95
2022-12-09T03:44:33.700Z,65.38
2022-12-09T03:47:04.575Z,64.49
2022-12-09T03:49:33.239Z,63.58
2022-12-09T03:52:09.342Z,62.86
2022-12-09T03:54:44.591Z,62.69
2022-12-09T03:57:18.692Z,62.17
2022-12-09T03:59:54.788Z,61.98
2022-12-09T04:02:23.668Z,61.97
2022-12-09T04:04:52.638Z,61.82
2022-12-09T04:07:22.318Z,61.59
2022-12-09T04:09:50.710Z,61.92
2022-12-09T04:12:18.918Z,61.51
2022-12-09T04:14:47.273Z,61.58
2022-12-09T04:17:15.569Z,61.43
2022-12-09T04:19:43.872Z,61.65
2022-12-09T04:22:15.091Z,61.63
2022-12-09T04:24:45.223Z,61.47
2022-12-09T04:27:13.872Z,61.99
2022-12-09T04:29:42.272Z,62.36
2022-12-09T04:32:10.499Z,61.73
2022-12-09T04:34:38.567Z,62.18
2022-12-09T04:37:08.739Z,61.78
2022-12-09T04:39:36.872Z,61.88
2022-12-09T04:42:06.383Z,61.75
2022-12-09T04:44:34.679Z,63.03
2022-12-09T04:47:02.757Z,63.35
2022-12-09T04:49:30.965Z,62.60
2022-12-09T04:52:01.589Z,62.48
2022-12-09T04:54:29.776Z,62.45
2022-12-09T04:56:57.825Z,62.17
2022-12-09T04:59:31.066Z,63.30
2022-12-09T05:01:59.488Z,62.47
2022-12-09T05:04:28.039Z,62.69
2022-12-09T05:06:56.505Z,62.59
2022-12-09T05:09:24.687Z,62.62
2022-12-09T05:11:54.344Z,62.13
2022-12-09T05:14:23.628Z,62.57
2022-12-09T05:16:53.235Z,63.44
2022-12-09T05:19:21.909Z,63.59
2022-12-09T05:21:50.260Z,64.36
2022-12-09T05:24:18.406Z,64.51
2022-12-09T05:26:46.782Z,64.54
2022-12-09T05:29:20.861Z,64.16
2022-12-09T05:31:51.738Z,65.69
2022-12-09T05:34:21.628Z,64.16
2022-12-09T05:36:50.259Z,63.46
2022-12-09T05:39:18.757Z,63.17
2022-12-09T05:41:47.945Z,62.35
2022-12-09T05:44:16.477Z,61.90
2022-12-09T05:46:47.172Z,62.46
2022-12-09T05:49:16.123Z,62.35
2022-12-09T05:51:45.528Z,63.54
2022-12-09T05:54:13.742Z,64.97
2022-12-09T05:56:47.891Z,64.38
2022-12-09T05:59:17.179Z,64.13
2022-12-09T06:01:45.778Z,62.70
2022-12-09T06:04:14.483Z,63.23
2022-12-09T06:06:43.293Z,63.05
2022-12-09T06:09:15.415Z,64.14
2022-12-09T06:11:44.376Z,66.21
2022-12-09T06:14:15.070Z,64.42
2022-12-09T06:16:43.409Z,63.92
2022-12-09T06:19:12.391Z,63.79
2022-12-09T06:21:41.660Z,64.26
2022-12-09T06:24:11.718Z,63.80
2022-12-09T06:26:41.794Z,64.83
2022-12-09T06:29:11.092Z,65.01
2022-12-09T06:31:39.371Z,64.98
2022-12-09T06:34:07.612Z,64.31
2022-12-09T06:36:36.296Z,64.26
2022-12-09T06:39:10.623Z,63.66
2022-12-09T06:41:42.167Z,63.02
2022-12-09T06:44:14.815Z,62.04
2022-12-09T06:46:48.688Z,61.54
2022-12-09T06:49:17.358Z,61.39
2022-12-09T06:51:45.668Z,61.74
2022-12-09T06:54:14.129Z,62.96
2022-12-09T06:56:44.225Z,62.17
2022-12-09T06:59:13.150Z,62.73
2022-12-09T07:01:41.884Z,62.18
2022-12-09T07:04:14.634Z,63.75
2022-12-09T07:06:45.452Z,64.44
2022-12-09T07:09:16.464Z,64.02
2022-12-09T07:11:47.351Z,64.22
2022-12-09T07:14:18.122Z,63.45
2022-12-09T07:16:47.056Z,62.63
2022-12-09T07:19:21.210Z,62.72
2022-12-09T07:21:50.836Z,61.92
2022-12-09T07:24:20.769Z,63.20
2022-12-09T07:26:51.559Z,62.98
2022-12-09T07:29:20.767Z,62.23
2022-12-09T07:31:49.537Z,61.75
2022-12-09T07:34:18.620Z,61.86
2022-12-09T07:36:46.877Z,61.90
2022-12-09T07:39:17.246Z,61.48
2022-12-09T07:41:48.431Z,55.63
2022-12-09T07:44:18.696Z,48.52
2022-12-09T07:46:47.225Z,45.23
2022-12-09T07:49:16.954Z,42.21
2022-12-09T07:51:46.470Z,39.64
2022-12-09T07:54:16.380Z,31.46
2022-12-09T07:56:44.999Z,31.25
2022-12-09T07:59:15.234Z,33.11
2022-12-09T08:01:46.003Z,34.02
2022-12-09T08:04:14.672Z,37.60
2022-12-09T08:06:43.502Z,36.30
2022-12-09T08:09:14.786Z,34.47
2022-12-09T08:11:43.520Z,30.05
2022-12-09T08:14:13.474Z,27.66
2022-12-09T08:16:44.718Z,25.97
2022-12-09T08:19:14.058Z,26.21
2022-12-09T08:21:43.549Z,27.12
2022-12-09T08:24:13.089Z,28.06
2022-12-09T08:26:43.136Z,32.71
2022-12-09T08:29:14.389Z,38.23
2022-12-09T08:31:45.329Z,43.74
2022-12-09T08:34:15.275Z,48.23
2022-12-09T08:36:44.373Z,47.44
2022-12-09T08:39:13.504Z,49.53
2022-12-09T08:41:43.916Z,50.53
2022-12-09T08:44:14.407Z,50.60
2022-12-09T08:46:46.468Z,51.09
2022-12-09T08:49:18.959Z,50.79
2022-12-09T08:51:49.209Z,50.92
2022-12-09T08:54:18.127Z,50.75
2022-12-09T08:56:47.618Z,50.70
2022-12-09T08:59:16.965Z,51.15
2022-12-09T09:01:46.961Z,52.18
2022-12-09T09:04:18.267Z,52.13
2022-12-09T09:06:50.184Z,53.63
2022-12-09T09:09:20.300Z,53.04
2022-12-09T09:11:49.600Z,54.39
2022-12-09T09:14:18.551Z,53.60
2022-12-09T09:16:48.571Z,53.60
2022-12-09T09:19:20.647Z,51.71
2022-12-09T09:21:49.980Z,52.06
2022-12-09T09:24:20.659Z,53.89
2022-12-09T09:26:51.015Z,54.71
2022-12-09T09:29:22.259Z,56.45
2022-12-09T09:31:54.556Z,58.97
2022-12-09T09:34:24.030Z,59.74
2022-12-09T09:36:52.794Z,57.63
2022-12-09T09:39:21.634Z,58.87
2022-12-09T09:41:53.497Z,55.88
2022-12-09T09:44:29.585Z,57.06
2022-12-09T09:47:01.171Z,56.39
2022-12-09T09:49:36.885Z,55.16
2022-12-09T09:52:09.784Z,55.19
2022-12-09T09:54:38.708Z,55.52
2022-12-09T09:57:15.097Z,55.84
2022-12-09T09:59:58.822Z,55.16
2022-12-09T10:02:59.459Z,53.66
2022-12-09T10:05:32.837Z,55.52
2022-12-09T10:08:17.469Z,56.75
2022-12-09T10:10:59.762Z,55.94
2022-12-09T10:13:39.757Z,55.61
2022-12-09T10:16:15.766Z,55.51
2022-12-09T10:19:07.411Z,54.68
2022-12-09T10:21:42.367Z,54.10
2022-12-09T10:24:21.164Z,52.67
2022-12-09T10:27:00.841Z,51.83
2022-12-09T10:29:47.746Z,52.16
2022-12-09T10:32:26.540Z,53.64
2022-12-09T10:34:56.407Z,54.39
2022-12-09T10:37:31.651Z,56.25
2022-12-09T10:40:15.508Z,52.98
2022-12-09T10:43:04.859Z,51.98
2022-12-09T10:46:00.160Z,54.44
2022-12-09T10:48:33.057Z,52.07
2022-12-09T10:51:07.261Z,51.78
2022-12-09T10:53:37.605Z,51.57
2022-12-09T10:56:07.865Z,51.47
2022-12-09T10:58:36.069Z,50.64
2022-12-09T11:01:10.261Z,51.11
2022-12-09T11:03:41.519Z,52.58
2022-12-09T11:06:23.546Z,52.12
2022-12-09T11:08:58.025Z,51.79
2022-12-09T11:11:42.941Z,49.77
2022-12-09T11:14:23.212Z,49.80
2022-12-09T11:16:54.459Z,50.55
2022-12-09T11:19:34.306Z,49.46
2022-12-09T11:22:24.881Z,53.74
2022-12-09T11:24:56.732Z,54.90
2022-12-09T11:27:31.219Z,54.25
2022-12-09T11:30:13.199Z,55.18
2022-12-09T11:32:57.141Z,52.31
2022-12-09T11:35:34.051Z,50.93
2022-12-09T11:38:15.411Z,49.93
2022-12-09T11:40:44.042Z,50.11
2022-12-09T11:43:12.317Z,51.75
2022-12-09T11:45:41.823Z,52.22
2022-12-09T11:48:30.251Z,51.79
2022-12-09T11:51:03.091Z,48.94
2022-12-09T11:53:34.389Z,50.03
2022-12-09T11:56:08.591Z,51.15
2022-12-09T11:58:43.557Z,54.70
2022-12-09T12:01:17.756Z,53.85
2022-12-09T12:03:49.643Z,53.39
2022-12-09T12:06:22.818Z,55.60
2022-12-09T12:08:55.883Z,55.93
2022-12-09T12:11:29.821Z,54.33
2022-12-09T12:14:04.783Z,57.40
2022-12-09T12:16:39.652Z,58.36
2022-12-09T12:19:14.780Z,57.21
2022-12-09T12:21:57.137Z,56.64
2022-12-09T12:25:17.688Z,54.73
2022-12-09T12:28:02.359Z,50.46
2022-12-09T12:30:39.933Z,48.42
2022-12-09T12:34:07.788Z,50.99
2022-12-09T12:36:25.077Z,49.57
2022-12-09T12:39:07.091Z,48.25
2022-12-09T12:41:47.595Z,45.54
2022-12-09T12:45:09.503Z,46.70
2022-12-09T12:47:45.629Z,47.12
2022-12-09T12:50:33.348Z,48.09
2022-12-09T12:53:11.175Z,49.21
2022-12-09T12:55:50.241Z,50.84
2022-12-09T12:58:50.690Z,54.15
2022-12-09T13:01:30.155Z,54.79
2022-12-09T13:04:15.092Z,54.87
2022-12-09T13:06:49.330Z,53.66
2022-12-09T13:09:23.961Z,53.51
2022-12-09T13:12:01.034Z,54.15
2022-12-09T13:14:37.635Z,52.96
2022-12-09T13:17:09.733Z,53.60
2022-12-09T13:19:42.794Z,53.97
2022-12-09T13:22:20.478Z,56.98
2022-12-09T13:25:00.087Z,54.16
2022-12-09T13:27:38.574Z,54.41
2022-12-09T13:30:16.988Z,55.22
2022-12-09T13:33:18.790Z,55.72
2022-12-09T13:35:56.136Z,55.61
2022-12-09T13:38:27.363Z,56.85
2022-12-09T13:40:55.475Z,56.89
2022-12-09T13:43:27.102Z,57.19
2022-12-09T13:45:59.206Z,57.37
2022-12-09T13:48:46.385Z,58.46
2022-12-09T13:51:15.960Z,57.71
2022-12-09T13:53:50.566Z,58.35
2022-12-09T13:56:26.746Z,58.30
2022-12-09T13:59:33.993Z,58.73
2022-12-09T14:02:15.095Z,57.23
2022-12-09T14:04:53.335Z,57.63
2022-12-09T14:07:31.770Z,58.25
2022-12-09T14:10:00.371Z,57.38
2022-12-09T14:13:19.140Z,57.85
2022-12-09T14:15:48.879Z,58.71
2022-12-09T14:18:32.981Z,59.51
2022-12-09T14:21:30.475Z,59.02
2022-12-09T14:24:33.196Z,58.43
2022-12-09T14:27:16.190Z,58.81
2022-12-09T14:29:56.330Z,58.00
2022-12-09T14:32:31.879Z,58.12
2022-12-09T14:35:06.146Z,59.21
2022-12-09T14:37:46.758Z,59.79
2022-12-09T14:40:45.727Z,61.24
2022-12-09T14:43:29.054Z,61.16
2022-12-09T14:46:01.098Z,61.87
2022-12-09T14:48:34.543Z,61.59
2022-12-09T14:51:18.189Z,61.49
2022-12-09T14:53:51.250Z,62.33
2022-12-09T14:56:21.743Z,61.91
2022-12-09T14:58:51.847Z,61.75
2022-12-09T15:01:20.212Z,61.82
2022-12-09T15:03:53.824Z,61.95
2022-12-09T15:06:26.808Z,62.69
2022-12-09T15:08:58.266Z,62.84
2022-12-09T15:11:29.515Z,63.58
2022-12-09T15:14:19.351Z,63.08
2022-12-09T15:16:50.638Z,63.17
2022-12-09T15:19:51.137Z,62.86
2022-12-09T15:22:21.716Z,63.17
2022-12-09T15:24:51.295Z,63.19
2022-12-09T15:27:21.646Z,64.18
2022-12-09T15:29:50.093Z,64.20
2022-12-09T15:32:23.659Z,63.84
2022-12-09T15:34:53.105Z,64.93
2022-12-09T15:37:27.914Z,64.25
2022-12-09T15:40:01.390Z,64.10
2022-12-09T15:42:33.837Z,64.09
2022-12-09T15:45:09.974Z,65.47
2022-12-09T15:47:41.482Z,65.38
2022-12-09T15:50:18.337Z,66.15
2022-12-09T15:52:52.502Z,64.52
2022-12-09T15:55:23.571Z,63.98
2022-12-09T15:57:54.943Z,64.74
2022-12-09T16:00:23.434Z,65.02
2022-12-09T16:02:52.396Z,64.49
2022-12-09T16:05:25.689Z,64.04
2022-12-09T16:07:59.026Z,65.30
2022-12-09T16:10:29.045Z,65.13
2022-12-09T16:13:12.192Z,65.44
2022-12-09T16:15:46.934Z,65.15
2022-12-09T16:18:19.033Z,66.51
2022-12-09T16:21:02.523Z,66.00
2022-12-09T16:23:32.324Z,66.86
2022-12-09T16:26:07.241Z,66.69
2022-12-09T16:28:36.622Z,66.46
2022-12-09T16:31:18.436Z,66.32
2022-12-09T16:33:49.508Z,67.35
2022-12-09T16:36:21.400Z,67.92
2022-12-09T16:39:32.224Z,68.79
2022-12-09T16:42:03.075Z,67.34
2022-12-09T16:44:34.409Z,68.07
2022-12-09T16:47:14.716Z,67.52
2022-12-09T16:49:46.509Z,68.29
2022-12-09T16:52:16.497Z,68.34
2022-12-09T16:54:47.430Z,67.58
2022-12-09T16:57:16.978Z,67.82
2022-12-09T16:59:45.958Z,67.26
2022-12-09T17:02:20.677Z,67.40
2022-12-09T17:04:50.124Z,67.53
2022-12-09T17:07:18.093Z,67.34
2022-12-09T17:09:48.093Z,68.06
2022-12-09T17:12:16.441Z,67.06
2022-12-09T17:14:44.541Z,66.94
2022-12-09T17:17:12.502Z,66.87
2022-12-09T17:19:42.159Z,68.30
2022-12-09T17:22:10.191Z,67.49
2022-12-09T17:24:38.931Z,68.48
2022-12-09T17:27:08.471Z,68.16
2022-12-09T17:29:37.268Z,68.39
2022-12-09T17:32:05.797Z,68.45
2022-12-09T17:34:34.022Z,67.83
2022-12-09T17:37:02.220Z,68.57
2022-12-09T17:39:30.199Z,66.95
2022-12-09T17:41:58.213Z,66.61
2022-12-09T17:44:27.841Z,65.61
2022-12-09T17:46:56.889Z,66.73
2022-12-09T17:49:25.257Z,67.20
2022-12-09T17:51:53.472Z,66.76
2022-12-09T17:54:21.696Z,68.42
2022-12-09T17:56:49.730Z,69.10
2022-12-09T17:59:19.061Z,68.80
2022-12-09T18:01:48.789Z,68.33
2022-12-09T18:04:16.927Z,68.79
2022-12-09T18:06:46.889Z,69.05
2022-12-09T18:09:16.932Z,69.48
2022-12-09T18:11:46.108Z,69.20
2022-12-09T18:14:14.827Z,69.00
2022-12-09T18:16:43.187Z,69.15
2022-12-09T18:19:16.624Z,69.13
2022-12-09T18:21:44.967Z,68.99
2022-12-09T18:24:13.858Z,68.71
2022-12-09T18:26:42.615Z,68.92
2022-12-09T18:29:11.434Z,68.20
2022-12-09T18:31:39.834Z,68.05
2022-12-09T18:34:08.336Z,67.85
2022-12-09T18:36:38.049Z,67.71
2022-12-09T18:39:07.030Z,67.27
2022-12-09T18:41:35.786Z,67.05
2022-12-09T18:44:05.302Z,66.83
2022-12-09T18:46:36.510Z,67.98
2022-12-09T18:49:07.286Z,68.50
2022-12-09T18:51:37.584Z,69.15
2022-12-09T18:54:07.218Z,69.41
2022-12-09T18:56:36.428Z,68.86
2022-12-09T18:59:07.503Z,68.34
2022-12-09T19:01:39.234Z,66.55
2022-12-09T19:04:09.758Z,69.53
2022-12-09T19:06:41.161Z,69.07
2022-12-09T19:09:12.102Z,67.21
2022-12-09T19:11:42.082Z,68.36
2022-12-09T19:14:10.813Z,68.34
2022-12-09T19:16:39.453Z,67.78
2022-12-09T19:19:10.257Z,69.42
2022-12-09T19:21:40.375Z,68.55
2022-12-09T19:24:13.472Z,69.08
2022-12-09T19:26:42.698Z,68.32
2022-12-09T19:29:11.510Z,69.02
2022-12-09T19:31:41.414Z,69.99
2022-12-09T19:34:13.561Z,69.62
2022-12-09T19:36:43.805Z,69.14
2022-12-09T19:39:13.682Z,69.07
2022-12-09T19:41:43.033Z,67.70
2022-12-09T19:44:15.402Z,68.60
2022-12-09T19:46:46.841Z,68.23
2022-12-09T19:49:18.901Z,68.72
2022-12-09T19:51:48.783Z,69.98
2022-12-09T19:54:17.388Z,69.83
2022-12-09T19:56:46.007Z,70.08
2022-12-09T19:59:14.705Z,68.72
2022-12-09T20:01:44.507Z,69.12
2022-12-09T20:04:47.108Z,68.86
2022-12-09T20:07:07.788Z,68.40
2022-12-09T20:09:37.798Z,68.42
2022-12-09T20:12:06.302Z,68.21
2022-12-09T20:14:34.496Z,68.42
2022-12-09T20:17:02.473Z,68.53
2022-12-09T20:19:32.361Z,67.54
2022-12-09T20:22:00.595Z,69.29
2022-12-09T20:24:30.373Z,67.96
2022-12-09T20:26:58.737Z,68.40
2022-12-09T20:29:27.642Z,68.93
2022-12-09T20:31:58.368Z,69.09
2022-12-09T20:34:26.707Z,69.57
2022-12-09T20:36:55.082Z,67.95
2022-12-09T20:39:23.099Z,68.63
2022-12-09T20:41:52.499Z,69.21
2022-12-09T20:44:21.062Z,68.11
2022-12-09T20:46:51.434Z,67.85
2022-12-09T20:49:25.408Z,67.96
2022-12-09T20:51:54.125Z,68.70
2022-12-09T20:54:22.175Z,68.02
2022-12-09T20:56:50.375Z,68.64
2022-12-09T20:59:19.703Z,70.07
2022-12-09T21:01:47.843Z,68.55
2022-12-09T21:04:16.892Z,69.88
2022-12-09T21:06:45.155Z,69.81
2022-12-09T21:09:17.531Z,68.78
2022-12-09T21:11:46.482Z,68.19
2022-12-09T21:14:18.073Z,67.83
2022-12-09T21:16:50.410Z,69.16
2022-12-09T21:19:24.433Z,70.09
2022-12-09T21:21:53.653Z,70.28
2022-12-09T21:24:23.213Z,70.19
2022-12-09T21:26:53.262Z,70.59
2022-12-09T21:29:22.323Z,69.40
2022-12-09T21:31:54.527Z,69.62
2022-12-09T21:34:24.287Z,69.12
2022-12-09T21:36:52.751Z,70.16
2022-12-09T21:39:21.513Z,70.41
2022-12-09T21:41:49.594Z,71.08
2022-12-09T21:44:19.578Z,69.83
2022-12-09T21:46:47.846Z,67.98
2022-12-09T21:49:17.263Z,68.51
2022-12-09T21:51:45.965Z,68.41
2022-12-09T21:54:13.990Z,68.44
2022-12-09T21:56:42.597Z,68.93
2022-12-09T21:59:12.224Z,68.00
2022-12-09T22:01:42.222Z,68.17
2022-12-09T22:04:12.379Z,70.25
2022-12-09T22:06:42.070Z,68.54
2022-12-09T22:09:11.673Z,69.99
2022-12-09T22:11:40.358Z,70.14
2022-12-09T22:14:10.479Z,70.68
2022-12-09T22:16:42.338Z,68.75
2022-12-09T22:19:14.293Z,68.96
2022-12-09T22:21:44.002Z,69.20
2022-12-09T22:24:14.220Z,68.26
2022-12-09T22:26:44.477Z,68.56
2022-12-09T22:29:14.106Z,69.37
2022-12-09T22:31:42.936Z,70.79
2022-12-09T22:34:13.074Z,70.15
2022-12-09T22:36:42.085Z,69.25
2022-12-09T22:39:13.621Z,68.00
2022-12-09T22:41:41.649Z,68.92
2022-12-09T22:44:12.608Z,70.02
2022-12-09T22:46:42.122Z,70.26
2022-12-09T22:49:13.074Z,69.38
2022-12-09T22:51:41.499Z,67.76
2022-12-09T22:54:11.915Z,69.49
2022-12-09T22:56:42.674Z,68.97
2022-12-09T22:59:11.816Z,68.90
2022-12-09T23:01:39.957Z,70.48
2022-12-09T23:04:09.619Z,70.16
2022-12-09T23:06:39.186Z,71.20
2022-12-09T23:09:09.274Z,70.56
2022-12-09T23:11:38.810Z,70.47
2022-12-09T23:14:07.156Z,71.37
2022-12-09T23:16:35.330Z,70.26
2022-12-09T23:19:03.370Z,69.64
2022-12-09T23:21:33.719Z,69.73
2022-12-09T23:24:04.410Z,71.40
2022-12-09T23:26:35.922Z,72.01
2022-12-09T23:29:07.528Z,72.52
2022-12-09T23:31:37.819Z,71.14
2022-12-09T23:34:08.225Z,70.77
2022-12-09T23:36:38.463Z,70.37
2022-12-09T23:39:10.921Z,71.32
2022-12-09T23:41:39.946Z,71.03
2022-12-09T23:44:11.000Z,70.21
2022-12-09T23:46:40.120Z,71.00
2022-12-09T23:49:09.443Z,70.90
2022-12-09T23:51:40.585Z,71.44
2022-12-09T23:54:10.076Z,72.11
2022-12-09T23:56:40.653Z,71.99
2022-12-09T23:59:14.278Z,71.23
